Time;durP1;ratioP1;P1;durP2;ratioP2;P2;SDS_P1;SDS_P2;PMS_P1;PMS_P2;Temp;Humidity;BMP_temperature;BMP_pressure;BME280_temperature;BME280_humidity;BME280_pressure;Samples;Min_cycle;Max_cycle;Signal;HPM_P1;HPM_P2
2021/08/29 00:00:00;;;;;;;14.98;8.85;;;;;;;10.08;100.00;96833.31;4998988;28;20562;-61
2021/08/29 00:02:26;;;;;;;12.77;7.85;;;;;;;10.09;100.00;96832.16;4995522;28;20045;-62
2021/08/29 00:04:51;;;;;;;17.92;8.90;;;;;;;10.23;100.00;96836.34;4986306;28;20425;-61
2021/08/29 00:07:17;;;;;;;12.95;7.68;;;;;;;10.31;100.00;96825.19;4998398;28;20716;-60
2021/08/29 00:09:42;;;;;;;12.57;8.07;;;;;;;10.31;100.00;96824.41;5002119;28;20048;-62
2021/08/29 00:12:09;;;;;;;12.52;7.82;;;;;;;10.39;100.00;96822.56;4987431;28;20429;-60
2021/08/29 00:14:34;;;;;;;13.10;7.75;;;;;;;10.41;100.00;96815.59;4994837;28;20034;-59
2021/08/29 00:17:00;;;;;;;16.65;7.20;;;;;;;10.49;100.00;96813.78;5003724;28;20635;-62
2021/08/29 00:19:25;;;;;;;10.38;6.72;;;;;;;10.61;100.00;96810.09;4984256;28;20081;-61
2021/08/29 00:21:50;;;;;;;9.38;6.50;;;;;;;10.67;100.00;96808.63;4995086;28;20049;-60
2021/08/29 00:24:16;;;;;;;10.80;6.50;;;;;;;10.68;100.00;96804.75;5003202;28;20069;-63
2021/08/29 00:26:41;;;;;;;9.07;5.28;;;;;;;10.68;100.00;96805.53;5006450;28;20042;-63
2021/08/29 00:29:07;;;;;;;11.10;5.63;;;;;;;10.61;100.00;96808.13;4977094;28;20078;-62
2021/08/29 00:31:33;;;;;;;11.13;5.75;;;;;;;10.60;100.00;96803.03;4974831;28;20048;-59
2021/08/29 00:33:58;;;;;;;9.75;5.93;;;;;;;10.59;100.00;96798.69;5003510;28;20088;-62
2021/08/29 00:36:23;;;;;;;8.50;5.32;;;;;;;10.55;100.00;96803.31;4998715;28;20062;-63
2021/08/29 00:38:49;;;;;;;8.45;5.07;;;;;;;10.51;100.00;96801.31;5003802;28;20041;-62
2021/08/29 00:41:14;;;;;;;11.43;5.75;;;;;;;10.47;100.00;96800.44;4985922;28;20038;-62
2021/08/29 00:43:40;;;;;;;8.95;6.00;;;;;;;10.35;100.00;96797.88;4977330;28;20034;-60
2021/08/29 00:46:06;;;;;;;9.35;6.13;;;;;;;10.17;100.00;96794.75;4997946;28;20046;-61
2021/08/29 00:48:32;;;;;;;12.07;6.80;;;;;;;10.03;100.00;96794.47;4999675;28;20877;-61
2021/08/29 00:50:57;;;;;;;10.25;6.40;;;;;;;9.92;100.00;96788.78;5002783;28;20132;-59
2021/08/29 00:53:23;;;;;;;13.77;7.05;;;;;;;9.80;100.00;96794.44;4996282;28;20073;-60
2021/08/29 00:55:49;;;;;;;11.98;7.25;;;;;;;9.71;100.00;96792.69;4995973;28;20038;-60
2021/08/29 00:58:16;;;;;;;14.25;8.00;;;;;;;9.67;100.00;96794.56;4982737;28;20062;-59
2021/08/29 01:00:43;;;;;;;10.05;7.10;;;;;;;9.64;100.00;96799.94;4994444;28;20422;-61
2021/08/29 01:03:20;;;;;;;9.98;6.20;;;;;;;9.70;100.00;96804.75;4996471;28;20116;-59
2021/08/29 01:06:23;;;;;;;12.90;7.43;;;;;;;9.84;100.00;96798.81;5002331;28;20153;-61
2021/08/29 01:08:56;;;;;;;8.95;5.97;;;;;;;9.95;100.00;96791.59;4984184;28;20049;-60
2021/08/29 01:11:26;;;;;;;9.85;6.38;;;;;;;9.97;100.00;96793.19;4983780;28;20972;-60
2021/08/29 01:13:58;;;;;;;12.25;6.38;;;;;;;9.89;100.00;96792.28;4992011;28;20042;-61
2021/08/29 01:16:24;;;;;;;9.65;5.93;;;;;;;9.87;100.00;96792.63;4996786;28;20537;-61
2021/08/29 01:18:53;;;;;;;14.52;6.63;;;;;;;9.71;100.00;96787.22;5002311;28;20580;-61
2021/08/29 01:21:23;;;;;;;15.93;6.25;;;;;;;9.54;100.00;96787.63;4997093;28;20042;-61
2021/08/29 01:24:20;;;;;;;10.88;6.78;;;;;;;9.51;100.00;96791.88;5002362;28;20061;-61
2021/08/29 01:26:56;;;;;;;12.13;5.82;;;;;;;9.60;100.00;96780.72;4980091;28;20042;-59
2021/08/29 01:29:28;;;;;;;20.80;11.98;;;;;;;9.74;100.00;96789.25;4955679;28;20402;-61
2021/08/29 01:31:54;;;;;;;9.75;6.35;;;;;;;10.02;100.00;96799.16;4976855;28;20161;-60
2021/08/29 01:34:20;;;;;;;7.97;5.65;;;;;;;10.11;100.00;96788.78;4968919;28;20558;-60
2021/08/29 01:36:55;;;;;;;8.68;5.25;;;;;;;10.17;100.00;96797.50;4980098;28;20130;-60
2021/08/29 01:39:22;;;;;;;8.73;5.15;;;;;;;10.10;100.00;96797.34;4967019;28;20123;-62
2021/08/29 01:41:49;;;;;;;7.88;5.40;;;;;;;10.08;100.00;96805.94;4960395;28;20050;-62
2021/08/29 01:44:16;;;;;;;10.15;5.65;;;;;;;10.11;100.00;96804.44;4968847;28;20039;-61
2021/08/29 01:46:42;;;;;;;7.15;5.20;;;;;;;10.08;100.00;96803.22;4977187;28;20053;-61
2021/08/29 01:49:10;;;;;;;8.55;5.28;;;;;;;10.18;100.00;96801.03;4966519;28;20125;-60
2021/08/29 01:51:37;;;;;;;7.18;5.28;;;;;;;10.16;100.00;96790.47;4970398;28;20054;-61
2021/08/29 01:54:03;;;;;;;8.32;4.47;;;;;;;10.13;100.00;96791.16;4961614;28;20058;-61
2021/08/29 01:56:28;;;;;;;7.50;4.95;;;;;;;10.19;100.00;96778.78;4963263;28;20158;-61
2021/08/29 01:58:54;;;;;;;7.18;4.80;;;;;;;10.18;100.00;96779.16;4981859;28;20053;-63
2021/08/29 02:01:19;;;;;;;7.25;4.55;;;;;;;10.10;100.00;96781.75;4975849;28;20057;-62
2021/08/29 02:03:45;;;;;;;7.88;5.22;;;;;;;10.08;100.00;96781.31;4980600;28;20054;-62
2021/08/29 02:06:17;;;;;;;8.65;5.45;;;;;;;10.09;100.00;96790.31;4941065;28;20093;-61
2021/08/29 02:09:04;;;;;;;8.13;5.22;;;;;;;10.06;100.00;96780.09;4960788;28;20054;-61
2021/08/29 02:11:36;;;;;;;11.68;5.72;;;;;;;10.15;100.00;96783.38;4959592;28;20562;-61
2021/08/29 02:14:04;;;;;;;9.57;4.93;;;;;;;10.38;100.00;96786.19;4962205;28;20882;-61
2021/08/29 02:16:34;;;;;;;8.45;4.50;;;;;;;10.62;100.00;96782.31;4959662;28;20039;-60
2021/08/29 02:19:00;;;;;;;6.72;3.47;;;;;;;10.65;100.00;96783.56;4961381;28;20535;-61
2021/08/29 02:21:28;;;;;;;8.82;3.83;;;;;;;10.70;100.00;96788.72;4956021;28;20078;-60
2021/08/29 02:23:53;;;;;;;8.82;4.03;;;;;;;10.77;100.00;96788.84;4960003;28;20723;-59
2021/08/29 02:26:23;;;;;;;5.72;4.10;;;;;;;10.86;100.00;96783.91;4955509;28;20138;-61
2021/08/29 02:28:48;;;;;;;6.60;4.13;;;;;;;10.89;100.00;96780.44;4961736;28;20035;-60
2021/08/29 02:31:18;;;;;;;6.50;4.63;;;;;;;10.71;100.00;96784.81;4955890;28;20053;-59
2021/08/29 02:33:43;;;;;;;8.88;4.38;;;;;;;10.51;100.00;96782.16;4960399;28;20053;-62
2021/08/29 02:36:08;;;;;;;7.05;4.60;;;;;;;10.09;100.00;96790.31;4953137;28;20038;-62
2021/08/29 02:38:34;;;;;;;6.80;4.80;;;;;;;9.95;100.00;96783.38;4964525;28;20046;-62
2021/08/29 02:41:02;;;;;;;9.68;5.35;;;;;;;9.86;100.00;96782.03;4980755;28;20038;-62
2021/08/29 02:43:28;;;;;;;11.70;6.03;;;;;;;9.76;100.00;96776.00;4975996;28;20050;-63
2021/08/29 02:45:54;;;;;;;9.60;6.10;;;;;;;9.76;100.00;96777.94;4980349;28;20046;-62
2021/08/29 02:48:21;;;;;;;14.15;7.50;;;;;;;9.73;100.00;96765.75;4974545;28;20057;-62
2021/08/29 02:50:47;;;;;;;13.93;6.72;;;;;;;9.74;100.00;96766.53;4980571;28;20109;-62
2021/08/29 02:53:17;;;;;;;13.07;7.20;;;;;;;9.76;100.00;96769.75;4962081;28;20046;-62
2021/08/29 02:55:48;;;;;;;11.25;6.80;;;;;;;9.83;100.00;96771.81;4960864;28;20133;-63
2021/08/29 02:58:14;;;;;;;8.85;5.88;;;;;;;10.00;100.00;96773.34;4955778;28;20503;-61
2021/08/29 03:00:39;;;;;;;12.02;7.07;;;;;;;10.12;100.00;96763.03;4958960;28;20451;-60
2021/08/29 03:03:05;;;;;;;9.40;6.15;;;;;;;10.13;100.00;96769.28;4956365;28;20049;-62
2021/08/29 03:05:31;;;;;;;10.95;7.13;;;;;;;10.07;100.00;96755.09;4959713;28;20047;-61
2021/08/29 03:07:57;;;;;;;14.30;8.18;;;;;;;10.06;100.00;96761.72;4959966;28;20669;-61
2021/08/29 03:10:23;;;;;;;11.10;6.78;;;;;;;10.18;100.00;96758.03;4955653;28;20841;-61
2021/08/29 03:12:49;;;;;;;12.95;6.07;;;;;;;10.31;100.00;96755.94;4959460;28;20050;-60
2021/08/29 03:15:15;;;;;;;10.02;6.38;;;;;;;10.42;100.00;96748.72;4956634;28;20049;-62
2021/08/29 03:17:41;;;;;;;8.30;5.38;;;;;;;10.52;100.00;96753.59;4961025;28;20063;-61
2021/08/29 03:20:08;;;;;;;10.43;5.70;;;;;;;10.46;100.00;96755.06;4955001;28;20042;-61
2021/08/29 03:22:35;;;;;;;7.55;5.18;;;;;;;10.27;100.00;96753.13;4962285;28;20884;-62
2021/08/29 03:25:02;;;;;;;14.35;7.30;;;;;;;10.08;100.00;96744.94;4965747;28;20496;-61
2021/08/29 03:27:28;;;;;;;10.95;6.47;;;;;;;10.10;100.00;96748.09;4959487;28;20565;-62
2021/08/29 03:29:53;;;;;;;12.98;7.05;;;;;;;10.12;100.00;96741.13;4952693;28;20085;-62
2021/08/29 03:32:20;;;;;;;10.20;6.68;;;;;;;10.00;100.00;96735.03;4969139;28;20046;-62
2021/08/29 03:34:46;;;;;;;10.27;7.10;;;;;;;10.05;100.00;96732.78;4964773;28;20507;-62
2021/08/29 03:37:12;;;;;;;11.43;6.63;;;;;;;10.14;100.00;96729.81;4959957;28;20042;-63
2021/08/29 03:39:38;;;;;;;9.23;5.72;;;;;;;10.16;100.00;96735.72;4963147;28;20415;-61
2021/08/29 03:42:04;;;;;;;12.07;6.28;;;;;;;10.36;100.00;96728.28;4970430;28;20255;-61
2021/08/29 03:44:29;;;;;;;8.77;5.32;;;;;;;10.51;100.00;96729.31;4976853;28;20069;-61
2021/08/29 03:46:55;;;;;;;7.97;5.18;;;;;;;10.54;100.00;96725.06;4971951;28;20395;-62
2021/08/29 03:49:22;;;;;;;6.97;4.68;;;;;;;10.61;100.00;96731.44;4967872;28;20038;-61
2021/08/29 03:51:48;;;;;;;6.90;4.53;;;;;;;10.73;100.00;96740.63;4968992;28;20129;-61
2021/08/29 03:54:14;;;;;;;8.27;4.85;;;;;;;10.93;100.00;96744.06;4957906;28;20694;-61
2021/08/29 03:56:40;;;;;;;7.43;4.38;;;;;;;11.04;100.00;96747.78;4969572;28;20058;-61
2021/08/29 03:59:06;;;;;;;7.82;5.65;;;;;;;11.08;100.00;96754.09;4967169;28;20573;-60
2021/08/29 04:01:32;;;;;;;7.32;4.18;;;;;;;11.05;100.00;96741.91;4962806;28;20050;-60
2021/08/29 04:03:58;;;;;;;8.20;5.00;;;;;;;11.14;100.00;96743.63;4971439;28;20043;-61
2021/08/29 04:06:29;;;;;;;6.90;4.30;;;;;;;11.13;100.00;96737.34;4968321;28;20550;-61
2021/08/29 04:08:56;;;;;;;7.32;3.88;;;;;;;11.12;100.00;96740.44;4956687;28;20103;-61
2021/08/29 04:11:27;;;;;;;8.80;4.65;;;;;;;11.07;100.00;96739.63;4949846;28;20232;-60
2021/08/29 04:13:54;;;;;;;7.35;4.57;;;;;;;10.86;100.00;96740.06;4968734;28;20062;-61
2021/08/29 04:16:20;;;;;;;14.45;4.68;;;;;;;10.90;100.00;96746.38;4956603;28;20054;-61
2021/08/29 04:18:47;;;;;;;6.50;4.10;;;;;;;10.78;100.00;96740.31;4970307;28;20051;-59
2021/08/29 04:21:15;;;;;;;7.25;4.70;;;;;;;10.50;100.00;96741.44;4964886;28;20046;-62
2021/08/29 04:23:41;;;;;;;8.13;5.07;;;;;;;10.41;100.00;96744.41;4961660;28;20043;-59
2021/08/29 04:26:08;;;;;;;7.53;5.07;;;;;;;10.33;100.00;96745.44;4969341;28;20054;-59
2021/08/29 04:28:34;;;;;;;9.55;5.35;;;;;;;10.21;100.00;96751.03;4970336;28;20052;-59
2021/08/29 04:31:01;;;;;;;11.40;5.60;;;;;;;10.02;100.00;96740.91;4960518;28;20105;-61
2021/08/29 04:33:28;;;;;;;10.35;6.28;;;;;;;9.98;100.00;96738.13;4967920;28;20113;-62
2021/08/29 04:35:54;;;;;;;10.90;6.15;;;;;;;10.01;100.00;96742.88;4975745;28;20054;-61
2021/08/29 04:38:19;;;;;;;14.70;6.32;;;;;;;10.04;100.00;96750.34;4978590;28;20042;-63
2021/08/29 04:40:45;;;;;;;20.35;7.25;;;;;;;10.14;100.00;96738.81;4984108;28;20042;-62
2021/08/29 04:43:11;;;;;;;10.80;6.82;;;;;;;10.16;100.00;96740.41;4978652;28;20077;-63
2021/08/29 04:45:36;;;;;;;10.65;6.72;;;;;;;10.13;100.00;96741.91;4968598;28;20046;-61
2021/08/29 04:48:02;;;;;;;11.60;7.03;;;;;;;10.12;100.00;96737.59;4968832;28;20411;-62
2021/08/29 04:50:29;;;;;;;12.27;6.78;;;;;;;10.36;100.00;96743.94;4977793;28;20050;-63
2021/08/29 04:52:54;;;;;;;10.82;7.28;;;;;;;10.36;100.00;96736.50;4981761;28;20034;-63
2021/08/29 04:55:20;;;;;;;11.25;6.47;;;;;;;10.36;100.00;96733.75;4967205;28;20054;-63
2021/08/29 04:57:45;;;;;;;9.82;6.10;;;;;;;10.39;100.00;96738.50;4964548;28;20531;-62
2021/08/29 05:00:10;;;;;;;14.52;6.50;;;;;;;10.40;100.00;96731.88;4965479;28;20118;-64
2021/08/29 05:02:37;;;;;;;12.15;6.55;;;;;;;10.44;100.00;96732.75;4974022;28;20038;-63
2021/08/29 05:05:03;;;;;;;12.30;6.38;;;;;;;10.48;100.00;96732.81;4969007;28;20042;-63
2021/08/29 05:07:28;;;;;;;10.02;6.10;;;;;;;10.66;100.00;96733.88;4962745;28;20047;-64
2021/08/29 05:09:53;;;;;;;9.00;5.50;;;;;;;10.81;100.00;96740.38;4972432;28;20050;-62
2021/08/29 05:12:19;;;;;;;7.78;4.90;;;;;;;10.78;100.00;96737.59;4958276;28;20143;-64
2021/08/29 05:14:44;;;;;;;9.52;5.50;;;;;;;10.84;100.00;96745.13;4971025;28;20042;-64
2021/08/29 05:17:10;;;;;;;7.97;5.47;;;;;;;10.87;100.00;96738.91;4974175;28;20039;-63
2021/08/29 05:19:35;;;;;;;8.55;5.35;;;;;;;10.87;100.00;96746.34;4982580;28;20376;-63
2021/08/29 05:22:00;;;;;;;8.98;4.55;;;;;;;10.99;100.00;96740.66;4973309;28;20047;-61
2021/08/29 05:24:26;;;;;;;9.20;5.90;;;;;;;11.09;100.00;96736.47;4962661;28;20566;-61
2021/08/29 05:26:51;;;;;;;9.63;5.15;;;;;;;11.20;100.00;96733.91;4967207;28;20046;-63
2021/08/29 05:29:17;;;;;;;8.25;4.30;;;;;;;11.28;100.00;96735.59;4963848;28;20074;-63
2021/08/29 05:31:42;;;;;;;7.88;4.93;;;;;;;11.38;100.00;96734.16;4982452;28;20042;-63
2021/08/29 05:34:08;;;;;;;7.88;4.53;;;;;;;11.32;100.00;96733.69;4965165;28;20059;-63
2021/08/29 05:36:33;;;;;;;8.20;4.30;;;;;;;11.34;100.00;96739.59;4979659;28;20096;-63
2021/08/29 05:38:59;;;;;;;6.85;4.60;;;;;;;11.34;100.00;96745.06;4966616;28;20063;-62
2021/08/29 05:41:24;;;;;;;7.63;4.60;;;;;;;11.26;100.00;96743.41;4963579;28;20050;-63
2021/08/29 05:43:49;;;;;;;7.22;5.15;;;;;;;11.10;100.00;96740.81;4976778;28;20038;-64
2021/08/29 05:46:15;;;;;;;8.38;5.20;;;;;;;11.05;100.00;96741.91;4976717;28;20124;-65
2021/08/29 05:48:40;;;;;;;10.75;5.03;;;;;;;11.09;100.00;96742.78;4974582;28;20758;-64
2021/08/29 05:51:06;;;;;;;8.68;5.20;;;;;;;11.25;100.00;96734.41;4972881;28;20062;-63
2021/08/29 05:53:31;;;;;;;9.43;5.43;;;;;;;11.28;100.00;96730.13;4972492;28;20046;-62
2021/08/29 05:55:57;;;;;;;8.43;5.75;;;;;;;11.27;100.00;96739.47;4969257;28;20121;-62
2021/08/29 05:58:22;;;;;;;7.35;5.35;;;;;;;11.34;100.00;96725.88;4978044;28;20609;-63
2021/08/29 06:00:48;;;;;;;8.35;4.97;;;;;;;11.44;100.00;96732.69;4973174;28;20085;-63
2021/08/29 06:03:13;;;;;;;7.78;5.35;;;;;;;11.34;100.00;96725.09;4968059;28;20034;-63
2021/08/29 06:05:38;;;;;;;7.60;5.07;;;;;;;11.35;100.00;96718.47;4975354;28;20137;-62
2021/08/29 06:08:04;;;;;;;11.60;5.57;;;;;;;11.45;100.00;96726.03;4964435;28;20089;-63
2021/08/29 06:10:30;;;;;;;8.43;5.60;;;;;;;11.39;100.00;96727.50;4962094;28;20061;-63
2021/08/29 06:12:56;;;;;;;9.02;5.80;;;;;;;11.48;100.00;96725.28;4966864;28;20042;-63
2021/08/29 06:15:21;;;;;;;12.05;4.78;;;;;;;11.66;100.00;96725.50;4956447;28;20138;-63
2021/08/29 06:17:47;;;;;;;8.20;5.15;;;;;;;11.66;100.00;96726.28;4972840;28;20157;-59
2021/08/29 06:20:13;;;;;;;9.23;5.53;;;;;;;11.69;100.00;96715.75;4971221;28;20043;-62
2021/08/29 06:22:38;;;;;;;8.10;5.80;;;;;;;11.80;100.00;96713.94;4972115;28;20523;-63
2021/08/29 06:25:05;;;;;;;7.60;4.95;;;;;;;11.90;100.00;96712.47;4952824;28;20076;-63
2021/08/29 06:27:30;;;;;;;9.25;5.50;;;;;;;11.88;100.00;96703.81;4972794;28;20133;-62
2021/08/29 06:29:55;;;;;;;9.40;6.45;;;;;;;11.77;100.00;96714.66;4967711;28;20157;-62
2021/08/29 06:32:21;;;;;;;12.77;6.47;;;;;;;11.55;100.00;96706.19;4966157;28;20050;-62
2021/08/29 06:34:46;;;;;;;10.80;7.22;;;;;;;11.26;100.00;96711.28;4980867;28;20077;-60
2021/08/29 06:37:11;;;;;;;11.43;6.60;;;;;;;11.27;100.00;96715.63;4966791;28;20047;-62
2021/08/29 06:39:37;;;;;;;11.43;7.20;;;;;;;11.34;100.00;96719.59;4941524;28;20042;-61
2021/08/29 06:42:03;;;;;;;10.82;6.80;;;;;;;11.48;100.00;96717.84;4967549;28;20048;-61
2021/08/29 06:44:28;;;;;;;12.93;7.18;;;;;;;11.65;100.00;96715.72;4941933;28;20046;-62
2021/08/29 06:46:53;;;;;;;9.45;6.25;;;;;;;11.77;100.00;96717.41;4961474;28;20039;-64
2021/08/29 06:49:19;;;;;;;11.73;6.78;;;;;;;11.74;100.00;96715.41;4964660;28;20647;-62
2021/08/29 06:51:44;;;;;;;9.50;5.80;;;;;;;11.78;100.00;96714.31;4971379;28;20523;-61
2021/08/29 06:54:09;;;;;;;12.07;7.13;;;;;;;11.69;100.00;96713.03;4958004;28;20130;-62
2021/08/29 06:56:35;;;;;;;10.35;6.68;;;;;;;11.80;100.00;96711.97;4960579;28;20371;-60
2021/08/29 06:59:00;;;;;;;10.45;6.97;;;;;;;11.78;100.00;96717.03;4967604;28;20050;-63
2021/08/29 07:01:26;;;;;;;11.60;7.30;;;;;;;11.86;100.00;96718.69;4963455;28;20050;-60
2021/08/29 07:03:51;;;;;;;13.48;8.25;;;;;;;12.03;100.00;96722.84;4974514;28;20168;-62
2021/08/29 07:06:17;;;;;;;11.63;6.88;;;;;;;12.07;100.00;96719.34;4963325;28;20434;-62
2021/08/29 07:08:42;;;;;;;13.25;7.65;;;;;;;12.07;100.00;96719.34;4967867;28;20047;-63
2021/08/29 07:11:07;;;;;;;15.82;8.40;;;;;;;11.96;100.00;96727.47;4963638;28;20065;-62
2021/08/29 07:13:33;;;;;;;12.60;8.30;;;;;;;12.02;100.00;96737.72;4961608;28;20057;-62
2021/08/29 07:15:58;;;;;;;14.65;8.65;;;;;;;12.29;100.00;96726.63;4972735;28;20383;-62
2021/08/29 07:18:24;;;;;;;12.73;8.27;;;;;;;12.42;100.00;96727.97;4973320;28;20593;-60
2021/08/29 07:20:49;;;;;;;14.15;7.97;;;;;;;12.57;100.00;96726.13;4977884;28;20531;-62
2021/08/29 07:23:14;;;;;;;13.38;7.97;;;;;;;12.63;100.00;96727.34;4969510;28;20412;-63
2021/08/29 07:25:40;;;;;;;11.50;7.40;;;;;;;12.71;100.00;96722.72;4973297;28;20473;-62
2021/08/29 07:28:05;;;;;;;12.90;7.72;;;;;;;12.77;100.00;96721.19;4963883;28;20419;-62
2021/08/29 07:30:32;;;;;;;11.63;7.47;;;;;;;12.77;100.00;96723.16;4970780;28;20060;-61
2021/08/29 07:32:58;;;;;;;12.65;7.70;;;;;;;12.77;100.00;96718.44;4973004;28;20050;-63
2021/08/29 07:35:23;;;;;;;14.20;8.27;;;;;;;12.70;100.00;96723.88;4964982;28;20162;-59
2021/08/29 07:37:49;;;;;;;11.77;7.63;;;;;;;12.77;100.00;96721.19;4966877;28;20490;-61
2021/08/29 07:40:19;;;;;;;14.13;7.65;;;;;;;12.84;100.00;96723.22;4966789;28;20448;-61
2021/08/29 07:42:44;;;;;;;12.18;7.50;;;;;;;12.95;100.00;96715.81;4965121;28;20058;-61
2021/08/29 07:45:10;;;;;;;12.50;7.32;;;;;;;13.15;100.00;96715.56;4956228;28;20055;-63
2021/08/29 07:47:36;;;;;;;14.02;7.53;;;;;;;13.32;100.00;96711.38;4963976;28;20050;-64
2021/08/29 07:50:01;;;;;;;13.45;7.72;;;;;;;13.51;100.00;96711.09;4961019;28;21147;-62
2021/08/29 07:52:27;;;;;;;12.35;7.45;;;;;;;13.76;100.00;96710.41;4960405;28;20576;-61
2021/08/29 07:54:52;;;;;;;10.38;6.97;;;;;;;13.82;100.00;96706.09;4975147;28;20046;-60
2021/08/29 07:57:18;;;;;;;12.48;7.10;;;;;;;13.64;100.00;96708.78;4972033;28;20042;-61
2021/08/29 07:59:43;;;;;;;12.00;7.70;;;;;;;13.78;100.00;96708.06;4967765;28;20455;-61
2021/08/29 08:02:08;;;;;;;11.85;6.53;;;;;;;13.85;100.00;96704.56;4961288;28;20078;-62
2021/08/29 08:04:34;;;;;;;10.52;6.60;;;;;;;13.92;100.00;96707.34;4966582;28;20054;-62
2021/08/29 08:06:59;;;;;;;10.63;6.85;;;;;;;14.04;100.00;96700.66;4964105;28;20373;-64
2021/08/29 08:09:24;;;;;;;9.52;6.22;;;;;;;14.10;100.00;96702.66;4964874;28;20039;-62
2021/08/29 08:11:50;;;;;;;11.60;6.95;;;;;;;13.87;100.00;96697.47;4971913;28;20082;-60
2021/08/29 08:14:15;;;;;;;10.55;6.65;;;;;;;13.96;100.00;96702.63;4967461;28;20050;-60
2021/08/29 08:16:41;;;;;;;10.82;6.85;;;;;;;13.89;100.00;96699.84;4971178;28;20039;-60
2021/08/29 08:19:06;;;;;;;12.00;5.90;;;;;;;13.84;100.00;96706.50;4961341;28;20053;-61
2021/08/29 08:21:32;;;;;;;9.77;5.97;;;;;;;13.95;100.00;96704.59;4971285;28;20047;-62
2021/08/29 08:23:57;;;;;;;9.05;5.88;;;;;;;13.91;100.00;96703.78;4976825;28;20038;-60
2021/08/29 08:26:23;;;;;;;8.60;5.57;;;;;;;13.76;100.00;96704.91;4960516;28;20496;-62
2021/08/29 08:28:48;;;;;;;8.75;5.65;;;;;;;13.77;100.00;96704.53;4971563;28;20057;-61
2021/08/29 08:31:13;;;;;;;9.90;5.38;;;;;;;13.85;100.00;96704.56;4969156;28;20082;-62
2021/08/29 08:33:39;;;;;;;8.18;5.55;;;;;;;13.85;100.00;96707.31;4969348;28;20056;-62
2021/08/29 08:36:04;;;;;;;9.98;5.93;;;;;;;13.72;100.00;96706.84;4970021;28;20049;-63
2021/08/29 08:38:30;;;;;;;10.45;6.43;;;;;;;13.62;100.00;96705.63;4966324;28;20055;-63
2021/08/29 08:40:55;;;;;;;10.25;5.70;;;;;;;13.87;100.00;96702.97;4971002;28;20467;-63
2021/08/29 08:43:21;;;;;;;8.05;5.28;;;;;;;14.18;100.00;96703.47;4964743;28;20500;-63
2021/08/29 08:45:47;;;;;;;7.68;4.93;;;;;;;14.38;96.57;96698.38;4974748;28;20077;-62
2021/08/29 08:48:13;;;;;;;9.15;5.97;;;;;;;14.14;100.00;96699.91;4968594;28;20372;-62
2021/08/29 08:50:45;;;;;;;8.85;5.93;;;;;;;14.28;100.00;96705.47;4971281;28;20408;-62
2021/08/29 08:53:13;;;;;;;6.57;4.60;;;;;;;14.46;99.60;96707.47;4966698;28;20423;-62
2021/08/29 08:55:39;;;;;;;8.63;5.50;;;;;;;14.39;100.00;96697.22;4971121;28;20043;-62
2021/08/29 08:58:05;;;;;;;7.88;4.82;;;;;;;14.44;98.74;96701.53;4966022;28;20042;-62
2021/08/29 09:00:31;;;;;;;8.70;5.57;;;;;;;14.53;99.44;96699.97;4972472;28;20065;-62
2021/08/29 09:02:56;;;;;;;6.65;4.28;;;;;;;14.60;98.14;96688.19;4976334;28;20053;-61
2021/08/29 09:05:22;;;;;;;5.88;3.70;;;;;;;14.34;99.99;96701.13;4964084;28;20518;-61
2021/08/29 09:07:48;;;;;;;5.05;2.80;;;;;;;14.23;97.34;96700.31;4970361;28;20066;-62
2021/08/29 09:10:13;;;;;;;4.35;2.85;;;;;;;14.50;96.52;96698.00;4968344;28;20105;-62
2021/08/29 09:12:58;;;;;;;4.47;2.90;;;;;;;14.62;96.78;96696.06;4956287;28;20042;-62
2021/08/29 09:15:24;;;;;;;5.22;3.47;;;;;;;14.47;98.38;96692.47;4967430;28;20142;-61
2021/08/29 09:17:49;;;;;;;4.22;3.53;;;;;;;14.32;99.00;96700.72;4973211;28;20046;-61
2021/08/29 09:20:19;;;;;;;5.03;3.35;;;;;;;14.60;97.70;96701.97;4966904;28;20089;-61
2021/08/29 09:22:46;;;;;;;4.30;2.97;;;;;;;14.49;97.76;96699.16;4970331;28;20096;-62
2021/08/29 09:25:21;;;;;;;5.65;3.17;;;;;;;14.33;98.61;96698.75;4966156;28;20130;-62
2021/08/29 09:27:49;;;;;;;6.18;3.45;;;;;;;14.33;100.00;96694.06;4974359;28;20117;-62
2021/08/29 09:30:16;;;;;;;5.72;3.75;;;;;;;14.36;100.00;96692.47;4972219;28;20491;-62
2021/08/29 09:32:52;;;;;;;8.18;3.97;;;;;;;14.43;100.00;96706.25;4967287;28;20086;-62
2021/08/29 09:35:19;;;;;;;22.02;11.23;;;;;;;14.38;100.00;96700.34;4966854;28;20108;-62
2021/08/29 09:37:45;;;;;;;12.35;6.22;;;;;;;14.47;100.00;96700.75;4974796;28;20546;-63
2021/08/29 09:40:22;;;;;;;5.88;3.33;;;;;;;14.46;99.93;96701.94;4965043;28;20038;-63
2021/08/29 09:42:50;;;;;;;5.18;3.30;;;;;;;14.33;100.00;96693.25;4969829;28;20049;-63
2021/08/29 09:45:28;;;;;;;5.53;3.40;;;;;;;14.20;99.41;96692.06;4964992;28;20051;-63
2021/08/29 09:48:05;;;;;;;6.25;3.70;;;;;;;13.98;100.00;96692.00;4982082;28;20074;-63
2021/08/29 09:50:33;;;;;;;7.40;4.05;;;;;;;13.70;100.00;96685.25;4971481;28;20051;-62
2021/08/29 09:53:01;;;;;;;8.40;4.22;;;;;;;13.60;100.00;96682.44;4971091;28;20081;-64
2021/08/29 09:55:41;;;;;;;6.32;3.72;;;;;;;13.84;100.00;96686.44;4968507;28;20047;-62
2021/08/29 09:58:26;;;;;;;4.25;2.72;;;;;;;14.03;100.00;96683.38;4968299;28;20058;-61
2021/08/29 10:01:12;;;;;;;5.40;3.95;;;;;;;14.09;100.00;96684.53;4970546;28;20134;-62
2021/08/29 10:03:46;;;;;;;5.30;3.17;;;;;;;14.28;100.00;96688.94;4981168;28;20038;-61
2021/08/29 10:06:19;;;;;;;5.53;2.00;;;;;;;14.50;100.00;96689.72;4958171;28;20062;-62
2021/08/29 10:08:52;;;;;;;2.85;1.70;;;;;;;15.11;98.37;96691.72;4970615;28;20523;-62
2021/08/29 10:11:19;;;;;;;2.22;1.50;;;;;;;15.08;96.22;96686.97;4965186;28;20050;-62
2021/08/29 10:13:45;;;;;;;2.33;1.73;;;;;;;15.26;96.84;96687.72;4973356;28;20072;-63
2021/08/29 10:16:12;;;;;;;3.17;1.90;;;;;;;15.54;96.54;96677.81;4977200;28;20050;-63
2021/08/29 10:18:43;;;;;;;2.17;1.25;;;;;;;15.36;93.70;96682.56;4974691;28;20046;-63
2021/08/29 10:21:14;;;;;;;3.20;1.60;;;;;;;15.67;92.42;96672.63;4972975;28;20049;-60
2021/08/29 10:23:41;;;;;;;6.05;2.92;;;;;;;15.11;96.17;96680.69;4975861;28;20436;-61
2021/08/29 10:26:11;;;;;;;1.95;1.35;;;;;;;15.28;93.43;96682.59;4963781;28;20499;-62
2021/08/29 10:28:42;;;;;;;2.70;1.60;;;;;;;14.91;96.28;96680.31;4942936;28;20055;-61
2021/08/29 10:31:12;;;;;;;2.30;1.35;;;;;;;14.90;97.07;96678.72;4937174;28;20512;-63
2021/08/29 10:33:39;;;;;;;2.70;1.60;;;;;;;14.96;97.07;96679.88;4968776;28;20084;-60
2021/08/29 10:36:07;;;;;;;4.22;1.60;;;;;;;14.80;99.31;96674.81;4973031;28;20041;-61
2021/08/29 10:38:36;;;;;;;2.33;1.45;;;;;;;15.04;96.82;96681.47;4981425;28;20042;-61
2021/08/29 10:41:02;;;;;;;2.63;1.63;;;;;;;14.95;97.43;96670.06;4970313;28;20052;-61
2021/08/29 10:43:28;;;;;;;1.30;0.90;;;;;;;14.94;92.24;96678.72;4966444;28;20104;-60
2021/08/29 10:45:54;;;;;;;2.20;1.50;;;;;;;14.97;93.72;96673.22;4974903;28;20038;-62
2021/08/29 10:48:21;;;;;;;3.10;1.45;;;;;;;14.99;98.39;96668.06;4975101;28;20394;-62
2021/08/29 10:50:48;;;;;;;3.25;1.90;;;;;;;15.57;92.96;96671.47;4967748;28;20599;-61
2021/08/29 10:53:27;;;;;;;3.83;2.10;;;;;;;15.72;93.75;96672.22;4963798;28;20105;-60
2021/08/29 10:56:15;;;;;;;3.45;2.17;;;;;;;15.27;96.30;96669.22;4965097;28;20399;-61
2021/08/29 10:58:46;;;;;;;3.05;1.65;;;;;;;15.47;93.21;96664.03;4962154;28;20051;-62
2021/08/29 11:01:41;;;;;;;3.30;2.00;;;;;;;15.67;89.73;96664.34;4961598;28;20271;-62
2021/08/29 11:04:21;;;;;;;3.90;2.45;;;;;;;15.79;89.81;96666.69;4959412;28;20051;-62
2021/08/29 11:06:54;;;;;;;3.40;2.50;;;;;;;15.90;88.47;96661.13;4963019;28;20043;-61
2021/08/29 11:09:34;;;;;;;3.97;2.30;;;;;;;15.81;90.12;96655.22;4953653;28;20039;-62
2021/08/29 11:11:59;;;;;;;5.65;3.22;;;;;;;15.59;91.08;96657.25;4971908;28;20046;-64
2021/08/29 11:14:41;;;;;;;12.47;6.70;;;;;;;15.49;90.58;96656.13;4964334;28;20117;-63
2021/08/29 11:17:09;;;;;;;15.35;8.40;;;;;;;15.45;95.51;96658.13;4959716;28;20302;-63
2021/08/29 11:19:40;;;;;;;3.63;2.67;;;;;;;16.01;91.96;96653.53;4959202;28;20045;-63
2021/08/29 11:22:08;;;;;;;5.70;2.90;;;;;;;16.44;90.44;96650.50;4966896;28;20101;-63
2021/08/29 11:24:54;;;;;;;5.75;2.92;;;;;;;16.69;85.28;96655.06;4966922;28;20141;-62